sensor_id;sensor_type;location;lat;lon;timestamp;P1;durP1;ratioP1;P2;durP2;ratioP2
10450;SDS011;5273;51.290;6.918;2023-11-21T00:00:06;27.77;;;11.67;;
10450;SDS011;5273;51.290;6.918;2023-11-21T00:02:37;21.70;;;10.97;;
10450;SDS011;5273;51.290;6.918;2023-11-21T00:05:08;24.83;;;12.87;;
10450;SDS011;5273;51.290;6.918;2023-11-21T00:07:35;25.00;;;12.77;;
10450;SDS011;5273;51.290;6.918;2023-11-21T00:10:05;26.67;;;12.03;;
10450;SDS011;5273;51.290;6.918;2023-11-21T00:12:39;26.30;;;11.93;;
10450;SDS011;5273;51.290;6.918;2023-11-21T00:15:08;22.77;;;11.63;;
10450;SDS011;5273;51.290;6.918;2023-11-21T00:17:37;19.87;;;11.50;;
10450;SDS011;5273;51.290;6.918;2023-11-21T00:20:05;22.53;;;10.87;;
10450;SDS011;5273;51.290;6.918;2023-11-21T00:22:35;19.10;;;10.97;;
10450;SDS011;5273;51.290;6.918;2023-11-21T00:25:03;20.67;;;11.13;;
10450;SDS011;5273;51.290;6.918;2023-11-21T00:27:32;21.97;;;11.13;;
10450;SDS011;5273;51.290;6.918;2023-11-21T00:30:03;22.93;;;11.53;;
10450;SDS011;5273;51.290;6.918;2023-11-21T00:32:31;24.43;;;11.37;;
10450;SDS011;5273;51.290;6.918;2023-11-21T00:34:59;22.53;;;11.50;;
10450;SDS011;5273;51.290;6.918;2023-11-21T00:37:26;21.53;;;11.47;;
10450;SDS011;5273;51.290;6.918;2023-11-21T00:39:53;23.30;;;11.57;;
10450;SDS011;5273;51.290;6.918;2023-11-21T00:55:47;30.10;;;13.23;;
10450;SDS011;5273;51.290;6.918;2023-11-21T00:58:22;28.00;;;13.87;;
10450;SDS011;5273;51.290;6.918;2023-11-21T01:00:49;33.53;;;12.97;;
10450;SDS011;5273;51.290;6.918;2023-11-21T01:03:16;26.90;;;12.83;;
10450;SDS011;5273;51.290;6.918;2023-11-21T01:05:43;24.67;;;13.10;;
10450;SDS011;5273;51.290;6.918;2023-11-21T01:08:10;33.97;;;14.27;;
10450;SDS011;5273;51.290;6.918;2023-11-21T01:10:40;28.23;;;12.90;;
10450;SDS011;5273;51.290;6.918;2023-11-21T01:13:08;31.40;;;13.33;;
10450;SDS011;5273;51.290;6.918;2023-11-21T01:15:35;27.87;;;13.07;;
10450;SDS011;5273;51.290;6.918;2023-11-21T01:18:03;28.50;;;13.10;;
10450;SDS011;5273;51.290;6.918;2023-11-21T01:20:30;33.17;;;13.07;;
10450;SDS011;5273;51.290;6.918;2023-11-21T01:22:57;28.37;;;13.23;;
10450;SDS011;5273;51.290;6.918;2023-11-21T01:25:24;34.07;;;12.87;;
10450;SDS011;5273;51.290;6.918;2023-11-21T01:27:52;46.07;;;16.63;;
10450;SDS011;5273;51.290;6.918;2023-11-21T01:30:20;35.70;;;16.00;;
10450;SDS011;5273;51.290;6.918;2023-11-21T01:32:47;40.53;;;15.97;;
10450;SDS011;5273;51.290;6.918;2023-11-21T01:35:17;33.03;;;15.87;;
10450;SDS011;5273;51.290;6.918;2023-11-21T01:37:44;39.47;;;16.07;;
10450;SDS011;5273;51.290;6.918;2023-11-21T01:40:13;35.00;;;15.90;;
10450;SDS011;5273;51.290;6.918;2023-11-21T01:42:40;40.20;;;15.90;;
10450;SDS011;5273;51.290;6.918;2023-11-21T01:45:08;34.77;;;15.40;;
10450;SDS011;5273;51.290;6.918;2023-11-21T01:47:39;72.97;;;18.07;;
10450;SDS011;5273;51.290;6.918;2023-11-21T01:50:07;33.67;;;15.57;;
10450;SDS011;5273;51.290;6.918;2023-11-21T01:52:37;40.23;;;16.97;;
10450;SDS011;5273;51.290;6.918;2023-11-21T01:55:09;54.57;;;18.90;;
10450;SDS011;5273;51.290;6.918;2023-11-21T01:57:37;44.23;;;17.93;;
10450;SDS011;5273;51.290;6.918;2023-11-21T02:00:04;41.47;;;17.77;;
10450;SDS011;5273;51.290;6.918;2023-11-21T02:02:42;39.57;;;17.30;;
10450;SDS011;5273;51.290;6.918;2023-11-21T02:05:09;47.77;;;18.10;;
10450;SDS011;5273;51.290;6.918;2023-11-21T02:07:37;42.70;;;16.93;;
10450;SDS011;5273;51.290;6.918;2023-11-21T02:10:05;39.60;;;17.67;;
10450;SDS011;5273;51.290;6.918;2023-11-21T02:12:38;36.67;;;16.70;;
10450;SDS011;5273;51.290;6.918;2023-11-21T02:15:07;31.43;;;15.73;;
10450;SDS011;5273;51.290;6.918;2023-11-21T02:17:41;34.10;;;16.63;;
10450;SDS011;5273;51.290;6.918;2023-11-21T02:20:09;34.67;;;16.43;;
10450;SDS011;5273;51.290;6.918;2023-11-21T02:22:40;44.00;;;18.20;;
10450;SDS011;5273;51.290;6.918;2023-11-21T02:25:09;36.30;;;17.23;;
10450;SDS011;5273;51.290;6.918;2023-11-21T02:27:37;47.40;;;17.67;;
10450;SDS011;5273;51.290;6.918;2023-11-21T02:30:04;53.30;;;19.50;;
10450;SDS011;5273;51.290;6.918;2023-11-21T02:32:38;44.07;;;16.93;;
10450;SDS011;5273;51.290;6.918;2023-11-21T02:35:09;37.43;;;18.23;;
10450;SDS011;5273;51.290;6.918;2023-11-21T02:37:37;43.77;;;18.17;;
10450;SDS011;5273;51.290;6.918;2023-11-21T02:40:06;41.30;;;17.17;;
10450;SDS011;5273;51.290;6.918;2023-11-21T02:42:37;32.43;;;15.47;;
10450;SDS011;5273;51.290;6.918;2023-11-21T02:45:05;34.37;;;14.70;;
10450;SDS011;5273;51.290;6.918;2023-11-21T02:47:33;37.57;;;15.87;;
10450;SDS011;5273;51.290;6.918;2023-11-21T02:50:00;33.03;;;15.17;;
10450;SDS011;5273;51.290;6.918;2023-11-21T02:52:27;37.53;;;15.90;;
10450;SDS011;5273;51.290;6.918;2023-11-21T02:54:54;37.47;;;16.90;;
10450;SDS011;5273;51.290;6.918;2023-11-21T02:57:23;33.47;;;15.40;;
10450;SDS011;5273;51.290;6.918;2023-11-21T02:59:50;32.07;;;13.53;;
10450;SDS011;5273;51.290;6.918;2023-11-21T03:02:18;30.03;;;12.87;;
10450;SDS011;5273;51.290;6.918;2023-11-21T03:04:45;29.83;;;13.10;;
10450;SDS011;5273;51.290;6.918;2023-11-21T03:07:14;31.03;;;13.83;;
10450;SDS011;5273;51.290;6.918;2023-11-21T03:09:41;26.67;;;13.60;;
10450;SDS011;5273;51.290;6.918;2023-11-21T03:12:09;28.27;;;11.50;;
10450;SDS011;5273;51.290;6.918;2023-11-21T03:14:43;28.87;;;13.93;;
10450;SDS011;5273;51.290;6.918;2023-11-21T03:17:13;22.70;;;11.83;;
10450;SDS011;5273;51.290;6.918;2023-11-21T03:19:41;23.10;;;11.33;;
10450;SDS011;5273;51.290;6.918;2023-11-21T03:22:09;28.00;;;12.13;;
10450;SDS011;5273;51.290;6.918;2023-11-21T03:24:36;30.13;;;12.17;;
10450;SDS011;5273;51.290;6.918;2023-11-21T03:27:04;24.07;;;11.43;;
10450;SDS011;5273;51.290;6.918;2023-11-21T03:29:31;25.70;;;13.53;;
10450;SDS011;5273;51.290;6.918;2023-11-21T03:32:00;26.83;;;13.53;;
10450;SDS011;5273;51.290;6.918;2023-11-21T03:34:27;25.33;;;12.77;;
10450;SDS011;5273;51.290;6.918;2023-11-21T03:36:54;35.03;;;15.27;;
10450;SDS011;5273;51.290;6.918;2023-11-21T03:39:21;35.30;;;14.80;;
10450;SDS011;5273;51.290;6.918;2023-11-21T03:41:50;34.60;;;14.60;;
10450;SDS011;5273;51.290;6.918;2023-11-21T03:44:18;32.53;;;14.27;;
10450;SDS011;5273;51.290;6.918;2023-11-21T03:46:44;40.97;;;15.70;;
10450;SDS011;5273;51.290;6.918;2023-11-21T03:49:13;29.63;;;13.87;;
10450;SDS011;5273;51.290;6.918;2023-11-21T03:51:40;35.03;;;13.93;;
10450;SDS011;5273;51.290;6.918;2023-11-21T03:54:07;28.43;;;14.57;;
10450;SDS011;5273;51.290;6.918;2023-11-21T03:56:34;30.53;;;14.10;;
10450;SDS011;5273;51.290;6.918;2023-11-21T03:59:01;30.40;;;15.17;;
10450;SDS011;5273;51.290;6.918;2023-11-21T04:01:28;37.77;;;15.23;;
10450;SDS011;5273;51.290;6.918;2023-11-21T04:03:56;31.67;;;13.87;;
10450;SDS011;5273;51.290;6.918;2023-11-21T04:06:30;34.83;;;14.60;;
10450;SDS011;5273;51.290;6.918;2023-11-21T04:09:01;34.67;;;16.27;;
10450;SDS011;5273;51.290;6.918;2023-11-21T04:11:30;33.17;;;15.07;;
10450;SDS011;5273;51.290;6.918;2023-11-21T04:13:59;33.80;;;14.93;;
10450;SDS011;5273;51.290;6.918;2023-11-21T04:16:26;30.53;;;14.47;;
10450;SDS011;5273;51.290;6.918;2023-11-21T04:18:56;34.83;;;17.00;;
10450;SDS011;5273;51.290;6.918;2023-11-21T04:21:26;36.03;;;15.40;;
10450;SDS011;5273;51.290;6.918;2023-11-21T04:23:53;32.40;;;15.27;;
10450;SDS011;5273;51.290;6.918;2023-11-21T04:26:20;27.50;;;14.63;;
10450;SDS011;5273;51.290;6.918;2023-11-21T04:28:49;29.90;;;14.67;;
10450;SDS011;5273;51.290;6.918;2023-11-21T04:31:16;43.77;;;16.37;;
10450;SDS011;5273;51.290;6.918;2023-11-21T04:33:43;38.63;;;16.57;;
10450;SDS011;5273;51.290;6.918;2023-11-21T04:36:11;31.20;;;14.53;;
10450;SDS011;5273;51.290;6.918;2023-11-21T04:38:39;39.50;;;16.47;;
10450;SDS011;5273;51.290;6.918;2023-11-21T04:41:07;34.57;;;15.70;;
10450;SDS011;5273;51.290;6.918;2023-11-21T04:43:34;38.40;;;18.00;;
10450;SDS011;5273;51.290;6.918;2023-11-21T04:46:01;42.70;;;17.93;;
10450;SDS011;5273;51.290;6.918;2023-11-21T04:48:28;43.47;;;18.10;;
10450;SDS011;5273;51.290;6.918;2023-11-21T04:50:55;45.93;;;18.33;;
10450;SDS011;5273;51.290;6.918;2023-11-21T04:53:27;40.87;;;17.30;;
10450;SDS011;5273;51.290;6.918;2023-11-21T04:55:56;43.40;;;17.43;;
10450;SDS011;5273;51.290;6.918;2023-11-21T04:58:23;48.50;;;20.47;;
10450;SDS011;5273;51.290;6.918;2023-11-21T05:00:50;50.03;;;19.57;;
10450;SDS011;5273;51.290;6.918;2023-11-21T05:03:17;51.03;;;20.03;;
10450;SDS011;5273;51.290;6.918;2023-11-21T05:05:44;51.67;;;17.40;;
10450;SDS011;5273;51.290;6.918;2023-11-21T05:08:11;33.10;;;15.87;;
10450;SDS011;5273;51.290;6.918;2023-11-21T05:10:39;42.17;;;17.03;;
10450;SDS011;5273;51.290;6.918;2023-11-21T05:13:07;47.80;;;18.57;;
10450;SDS011;5273;51.290;6.918;2023-11-21T05:15:35;53.40;;;20.20;;
10450;SDS011;5273;51.290;6.918;2023-11-21T05:18:03;46.00;;;19.10;;
10450;SDS011;5273;51.290;6.918;2023-11-21T05:20:33;42.57;;;18.63;;
10450;SDS011;5273;51.290;6.918;2023-11-21T05:23:00;44.53;;;19.77;;
10450;SDS011;5273;51.290;6.918;2023-11-21T05:25:27;46.57;;;18.43;;
10450;SDS011;5273;51.290;6.918;2023-11-21T05:27:54;43.87;;;18.90;;
10450;SDS011;5273;51.290;6.918;2023-11-21T05:30:22;47.80;;;19.73;;
10450;SDS011;5273;51.290;6.918;2023-11-21T05:32:49;42.80;;;18.53;;
10450;SDS011;5273;51.290;6.918;2023-11-21T05:35:17;48.90;;;19.07;;
10450;SDS011;5273;51.290;6.918;2023-11-21T05:37:44;44.40;;;18.60;;
10450;SDS011;5273;51.290;6.918;2023-11-21T05:40:13;53.17;;;20.77;;
10450;SDS011;5273;51.290;6.918;2023-11-21T05:42:40;52.37;;;20.50;;
10450;SDS011;5273;51.290;6.918;2023-11-21T05:45:08;47.53;;;18.87;;
10450;SDS011;5273;51.290;6.918;2023-11-21T05:47:37;48.50;;;20.23;;
10450;SDS011;5273;51.290;6.918;2023-11-21T05:50:06;47.33;;;20.33;;
10450;SDS011;5273;51.290;6.918;2023-11-21T05:52:35;45.70;;;20.10;;
10450;SDS011;5273;51.290;6.918;2023-11-21T05:55:06;48.17;;;19.63;;
10450;SDS011;5273;51.290;6.918;2023-11-21T05:57:33;44.77;;;19.20;;
10450;SDS011;5273;51.290;6.918;2023-11-21T06:00:02;46.77;;;19.17;;
10450;SDS011;5273;51.290;6.918;2023-11-21T06:02:37;52.43;;;20.13;;
10450;SDS011;5273;51.290;6.918;2023-11-21T06:05:06;61.80;;;20.77;;
10450;SDS011;5273;51.290;6.918;2023-11-21T06:07:34;58.70;;;21.80;;
10450;SDS011;5273;51.290;6.918;2023-11-21T06:10:01;54.50;;;20.03;;
10450;SDS011;5273;51.290;6.918;2023-11-21T06:12:32;49.00;;;20.27;;
10450;SDS011;5273;51.290;6.918;2023-11-21T06:15:01;52.93;;;20.97;;
10450;SDS011;5273;51.290;6.918;2023-11-21T06:17:30;49.90;;;21.00;;
10450;SDS011;5273;51.290;6.918;2023-11-21T06:20:03;45.77;;;19.40;;
10450;SDS011;5273;51.290;6.918;2023-11-21T06:22:34;46.83;;;18.40;;
10450;SDS011;5273;51.290;6.918;2023-11-21T06:25:01;52.60;;;19.50;;
10450;SDS011;5273;51.290;6.918;2023-11-21T06:27:30;31.63;;;12.13;;
10450;SDS011;5273;51.290;6.918;2023-11-21T06:29:57;26.83;;;13.07;;
10450;SDS011;5273;51.290;6.918;2023-11-21T06:32:25;37.30;;;15.80;;
10450;SDS011;5273;51.290;6.918;2023-11-21T06:34:54;51.23;;;19.73;;
10450;SDS011;5273;51.290;6.918;2023-11-21T06:37:26;52.60;;;18.20;;
10450;SDS011;5273;51.290;6.918;2023-11-21T06:39:53;58.37;;;21.63;;
10450;SDS011;5273;51.290;6.918;2023-11-21T06:42:21;55.57;;;21.30;;
10450;SDS011;5273;51.290;6.918;2023-11-21T06:44:49;47.00;;;19.90;;
10450;SDS011;5273;51.290;6.918;2023-11-21T06:47:16;55.67;;;21.23;;
10450;SDS011;5273;51.290;6.918;2023-11-21T06:49:45;33.37;;;13.93;;
10450;SDS011;5273;51.290;6.918;2023-11-21T06:52:14;31.87;;;12.20;;
10450;SDS011;5273;51.290;6.918;2023-11-21T06:54:42;27.57;;;12.00;;
10450;SDS011;5273;51.290;6.918;2023-11-21T06:57:10;27.20;;;13.50;;
10450;SDS011;5273;51.290;6.918;2023-11-21T06:59:37;24.37;;;12.03;;
10450;SDS011;5273;51.290;6.918;2023-11-21T07:02:04;31.47;;;13.90;;
10450;SDS011;5273;51.290;6.918;2023-11-21T07:04:32;37.90;;;16.07;;
10450;SDS011;5273;51.290;6.918;2023-11-21T07:06:59;30.17;;;13.67;;
10450;SDS011;5273;51.290;6.918;2023-11-21T07:09:27;43.87;;;15.77;;
10450;SDS011;5273;51.290;6.918;2023-11-21T07:11:55;33.10;;;16.20;;
10450;SDS011;5273;51.290;6.918;2023-11-21T07:14:23;42.67;;;17.50;;
10450;SDS011;5273;51.290;6.918;2023-11-21T07:16:50;39.00;;;17.50;;
10450;SDS011;5273;51.290;6.918;2023-11-21T07:19:17;42.37;;;17.57;;
10450;SDS011;5273;51.290;6.918;2023-11-21T07:21:48;45.77;;;19.57;;
10450;SDS011;5273;51.290;6.918;2023-11-21T07:24:16;55.80;;;21.33;;
10450;SDS011;5273;51.290;6.918;2023-11-21T07:26:43;48.20;;;19.03;;
10450;SDS011;5273;51.290;6.918;2023-11-21T07:29:17;52.60;;;19.57;;
10450;SDS011;5273;51.290;6.918;2023-11-21T07:31:44;54.07;;;20.27;;
10450;SDS011;5273;51.290;6.918;2023-11-21T07:34:11;62.67;;;22.37;;
10450;SDS011;5273;51.290;6.918;2023-11-21T07:36:38;70.07;;;21.80;;
10450;SDS011;5273;51.290;6.918;2023-11-21T07:39:05;80.07;;;24.80;;
10450;SDS011;5273;51.290;6.918;2023-11-21T07:41:32;79.90;;;23.97;;
10450;SDS011;5273;51.290;6.918;2023-11-21T07:43:59;101.00;;;26.30;;
10450;SDS011;5273;51.290;6.918;2023-11-21T07:46:28;73.33;;;23.77;;
10450;SDS011;5273;51.290;6.918;2023-11-21T07:48:55;70.90;;;21.87;;
10450;SDS011;5273;51.290;6.918;2023-11-21T07:51:23;134.23;;;25.87;;
10450;SDS011;5273;51.290;6.918;2023-11-21T07:53:50;141.10;;;27.63;;
10450;SDS011;5273;51.290;6.918;2023-11-21T07:56:19;157.83;;;28.83;;
10450;SDS011;5273;51.290;6.918;2023-11-21T07:58:50;92.47;;;25.63;;
10450;SDS011;5273;51.290;6.918;2023-11-21T08:01:17;178.47;;;31.13;;
10450;SDS011;5273;51.290;6.918;2023-11-21T08:03:45;310.23;;;38.80;;
10450;SDS011;5273;51.290;6.918;2023-11-21T08:06:16;234.73;;;35.07;;
10450;SDS011;5273;51.290;6.918;2023-11-21T08:08:44;144.60;;;29.77;;
10450;SDS011;5273;51.290;6.918;2023-11-21T08:11:11;160.00;;;29.80;;
10450;SDS011;5273;51.290;6.918;2023-11-21T08:13:38;145.17;;;28.57;;
10450;SDS011;5273;51.290;6.918;2023-11-21T08:16:06;154.87;;;27.40;;
10450;SDS011;5273;51.290;6.918;2023-11-21T08:18:33;179.17;;;27.13;;
10450;SDS011;5273;51.290;6.918;2023-11-21T08:21:04;195.37;;;28.27;;
10450;SDS011;5273;51.290;6.918;2023-11-21T08:23:31;191.13;;;27.30;;
10450;SDS011;5273;51.290;6.918;2023-11-21T08:25:59;329.40;;;39.67;;
10450;SDS011;5273;51.290;6.918;2023-11-21T08:28:28;191.23;;;29.17;;
10450;SDS011;5273;51.290;6.918;2023-11-21T08:30:55;162.60;;;28.47;;
10450;SDS011;5273;51.290;6.918;2023-11-21T08:33:22;160.73;;;26.37;;
10450;SDS011;5273;51.290;6.918;2023-11-21T08:35:50;168.33;;;27.50;;
10450;SDS011;5273;51.290;6.918;2023-11-21T08:38:18;201.90;;;27.20;;
10450;SDS011;5273;51.290;6.918;2023-11-21T08:40:47;140.83;;;24.33;;
10450;SDS011;5273;51.290;6.918;2023-11-21T08:43:14;209.83;;;27.23;;
10450;SDS011;5273;51.290;6.918;2023-11-21T08:45:41;177.53;;;26.27;;
10450;SDS011;5273;51.290;6.918;2023-11-21T08:48:08;167.63;;;29.00;;
10450;SDS011;5273;51.290;6.918;2023-11-21T08:50:36;142.47;;;27.77;;
10450;SDS011;5273;51.290;6.918;2023-11-21T08:53:05;146.03;;;27.77;;
10450;SDS011;5273;51.290;6.918;2023-11-21T08:55:36;203.00;;;29.27;;
10450;SDS011;5273;51.290;6.918;2023-11-21T08:58:03;91.00;;;26.40;;
10450;SDS011;5273;51.290;6.918;2023-11-21T09:00:34;148.77;;;27.17;;
10450;SDS011;5273;51.290;6.918;2023-11-21T09:03:01;148.00;;;29.43;;
10450;SDS011;5273;51.290;6.918;2023-11-21T09:05:33;89.17;;;24.40;;
10450;SDS011;5273;51.290;6.918;2023-11-21T09:08:00;122.93;;;26.37;;
10450;SDS011;5273;51.290;6.918;2023-11-21T09:10:31;83.73;;;25.70;;
10450;SDS011;5273;51.290;6.918;2023-11-21T09:13:01;94.47;;;27.90;;
10450;SDS011;5273;51.290;6.918;2023-11-21T09:15:28;99.07;;;26.73;;
10450;SDS011;5273;51.290;6.918;2023-11-21T09:17:55;82.27;;;26.03;;
10450;SDS011;5273;51.290;6.918;2023-11-21T09:20:22;132.50;;;28.10;;
10450;SDS011;5273;51.290;6.918;2023-11-21T09:22:50;85.63;;;24.77;;
10450;SDS011;5273;51.290;6.918;2023-11-21T09:25:16;90.87;;;27.03;;
10450;SDS011;5273;51.290;6.918;2023-11-21T09:27:44;85.03;;;26.33;;
10450;SDS011;5273;51.290;6.918;2023-11-21T09:30:13;76.23;;;26.60;;
10450;SDS011;5273;51.290;6.918;2023-11-21T09:32:41;80.50;;;27.47;;
10450;SDS011;5273;51.290;6.918;2023-11-21T09:35:11;98.83;;;28.20;;
10450;SDS011;5273;51.290;6.918;2023-11-21T09:37:43;76.33;;;26.13;;
10450;SDS011;5273;51.290;6.918;2023-11-21T09:40:11;73.50;;;26.23;;
10450;SDS011;5273;51.290;6.918;2023-11-21T09:42:43;83.47;;;27.70;;
10450;SDS011;5273;51.290;6.918;2023-11-21T09:45:18;81.13;;;28.13;;
10450;SDS011;5273;51.290;6.918;2023-11-21T09:47:51;81.33;;;28.10;;
10450;SDS011;5273;51.290;6.918;2023-11-21T09:50:20;84.73;;;28.10;;
10450;SDS011;5273;51.290;6.918;2023-11-21T09:52:49;92.47;;;30.83;;
10450;SDS011;5273;51.290;6.918;2023-11-21T09:55:22;76.93;;;26.47;;
10450;SDS011;5273;51.290;6.918;2023-11-21T09:57:54;67.30;;;24.77;;
10450;SDS011;5273;51.290;6.918;2023-11-21T10:00:24;69.60;;;24.43;;
10450;SDS011;5273;51.290;6.918;2023-11-21T10:02:52;62.10;;;24.83;;
10450;SDS011;5273;51.290;6.918;2023-11-21T10:05:20;70.70;;;25.60;;
10450;SDS011;5273;51.290;6.918;2023-11-21T10:07:48;80.43;;;27.08;;
10450;SDS011;5273;51.290;6.918;2023-11-21T10:10:19;75.67;;;25.60;;
10450;SDS011;5273;51.290;6.918;2023-11-21T10:12:51;70.70;;;26.08;;
10450;SDS011;5273;51.290;6.918;2023-11-21T10:15:21;67.10;;;24.05;;
10450;SDS011;5273;51.290;6.918;2023-11-21T10:17:51;69.20;;;25.25;;
10450;SDS011;5273;51.290;6.918;2023-11-21T10:20:21;67.07;;;24.90;;
10450;SDS011;5273;51.290;6.918;2023-11-21T10:22:49;58.80;;;23.73;;
10450;SDS011;5273;51.290;6.918;2023-11-21T10:25:18;70.10;;;24.53;;
10450;SDS011;5273;51.290;6.918;2023-11-21T10:27:47;71.22;;;25.05;;
10450;SDS011;5273;51.290;6.918;2023-11-21T10:30:16;78.20;;;26.05;;
10450;SDS011;5273;51.290;6.918;2023-11-21T10:32:44;75.95;;;25.77;;
10450;SDS011;5273;51.290;6.918;2023-11-21T10:35:11;70.95;;;26.63;;
10450;SDS011;5273;51.290;6.918;2023-11-21T10:37:38;80.65;;;27.55;;
10450;SDS011;5273;51.290;6.918;2023-11-21T10:40:06;75.85;;;26.13;;
10450;SDS011;5273;51.290;6.918;2023-11-21T10:42:37;75.55;;;25.08;;
10450;SDS011;5273;51.290;6.918;2023-11-21T10:45:04;80.82;;;25.52;;
10450;SDS011;5273;51.290;6.918;2023-11-21T10:47:37;65.73;;;23.93;;
10450;SDS011;5273;51.290;6.918;2023-11-21T10:50:09;68.82;;;23.35;;
10450;SDS011;5273;51.290;6.918;2023-11-21T10:52:41;73.47;;;24.90;;
10450;SDS011;5273;51.290;6.918;2023-11-21T10:55:18;76.33;;;25.00;;
10450;SDS011;5273;51.290;6.918;2023-11-21T10:57:46;82.07;;;28.20;;
10450;SDS011;5273;51.290;6.918;2023-11-21T11:00:16;77.53;;;25.73;;
10450;SDS011;5273;51.290;6.918;2023-11-21T11:02:45;72.70;;;25.90;;
10450;SDS011;5273;51.290;6.918;2023-11-21T11:05:15;71.25;;;25.95;;
10450;SDS011;5273;51.290;6.918;2023-11-21T11:07:46;74.00;;;25.80;;
10450;SDS011;5273;51.290;6.918;2023-11-21T11:10:19;67.70;;;25.03;;
10450;SDS011;5273;51.290;6.918;2023-11-21T11:12:48;66.13;;;24.77;;
10450;SDS011;5273;51.290;6.918;2023-11-21T11:15:17;60.80;;;22.60;;
10450;SDS011;5273;51.290;6.918;2023-11-21T11:17:45;56.90;;;22.33;;
10450;SDS011;5273;51.290;6.918;2023-11-21T11:20:14;60.20;;;22.30;;
10450;SDS011;5273;51.290;6.918;2023-11-21T11:22:48;46.40;;;19.60;;
10450;SDS011;5273;51.290;6.918;2023-11-21T11:25:28;51.47;;;20.80;;
10450;SDS011;5273;51.290;6.918;2023-11-21T11:28:10;46.95;;;19.30;;
10450;SDS011;5273;51.290;6.918;2023-11-21T11:30:41;51.72;;;19.52;;
10450;SDS011;5273;51.290;6.918;2023-11-21T11:33:23;43.78;;;18.27;;
10450;SDS011;5273;51.290;6.918;2023-11-21T11:35:57;43.58;;;18.92;;
10450;SDS011;5273;51.290;6.918;2023-11-21T11:38:33;48.47;;;18.48;;
10450;SDS011;5273;51.290;6.918;2023-11-21T11:41:01;43.97;;;18.45;;
10450;SDS011;5273;51.290;6.918;2023-11-21T11:43:30;46.63;;;19.13;;
10450;SDS011;5273;51.290;6.918;2023-11-21T11:46:05;41.40;;;17.35;;
10450;SDS011;5273;51.290;6.918;2023-11-21T11:48:34;40.83;;;17.45;;
10450;SDS011;5273;51.290;6.918;2023-11-21T11:51:11;41.33;;;17.90;;
10450;SDS011;5273;51.290;6.918;2023-11-21T11:53:42;40.60;;;18.58;;
10450;SDS011;5273;51.290;6.918;2023-11-21T11:56:27;50.15;;;21.20;;
10450;SDS011;5273;51.290;6.918;2023-11-21T11:58:57;47.08;;;20.40;;
10450;SDS011;5273;51.290;6.918;2023-11-21T12:01:27;42.63;;;19.02;;
10450;SDS011;5273;51.290;6.918;2023-11-21T12:06:59;49.08;;;20.58;;
10450;SDS011;5273;51.290;6.918;2023-11-21T12:09:28;43.47;;;20.40;;
10450;SDS011;5273;51.290;6.918;2023-11-21T12:11:58;45.92;;;21.08;;
10450;SDS011;5273;51.290;6.918;2023-11-21T12:14:26;52.65;;;20.85;;
10450;SDS011;5273;51.290;6.918;2023-11-21T12:16:55;46.37;;;21.23;;
10450;SDS011;5273;51.290;6.918;2023-11-21T12:19:22;43.92;;;18.02;;
10450;SDS011;5273;51.290;6.918;2023-11-21T12:21:49;48.75;;;20.73;;
10450;SDS011;5273;51.290;6.918;2023-11-21T12:24:18;55.10;;;21.58;;
10450;SDS011;5273;51.290;6.918;2023-11-21T12:26:45;47.25;;;19.73;;
10450;SDS011;5273;51.290;6.918;2023-11-21T12:29:15;54.88;;;21.35;;
10450;SDS011;5273;51.290;6.918;2023-11-21T12:31:42;51.72;;;21.52;;
10450;SDS011;5273;51.290;6.918;2023-11-21T12:34:09;53.05;;;20.00;;
10450;SDS011;5273;51.290;6.918;2023-11-21T12:36:37;51.03;;;20.95;;
10450;SDS011;5273;51.290;6.918;2023-11-21T12:39:05;45.17;;;20.27;;
10450;SDS011;5273;51.290;6.918;2023-11-21T12:41:35;44.13;;;19.35;;
10450;SDS011;5273;51.290;6.918;2023-11-21T12:44:09;42.60;;;20.17;;
10450;SDS011;5273;51.290;6.918;2023-11-21T12:46:40;46.58;;;20.70;;
10450;SDS011;5273;51.290;6.918;2023-11-21T12:49:13;53.58;;;20.50;;
10450;SDS011;5273;51.290;6.918;2023-11-21T12:51:43;45.95;;;20.20;;
10450;SDS011;5273;51.290;6.918;2023-11-21T12:54:13;49.60;;;19.55;;
10450;SDS011;5273;51.290;6.918;2023-11-21T12:56:44;46.17;;;19.73;;
10450;SDS011;5273;51.290;6.918;2023-11-21T12:59:15;47.00;;;19.98;;
10450;SDS011;5273;51.290;6.918;2023-11-21T13:01:43;42.08;;;18.75;;
10450;SDS011;5273;51.290;6.918;2023-11-21T13:04:15;52.05;;;21.92;;
10450;SDS011;5273;51.290;6.918;2023-11-21T13:06:43;58.10;;;21.98;;
10450;SDS011;5273;51.290;6.918;2023-11-21T13:09:12;55.17;;;22.92;;
10450;SDS011;5273;51.290;6.918;2023-11-21T13:11:47;53.72;;;21.73;;
10450;SDS011;5273;51.290;6.918;2023-11-21T13:14:14;57.25;;;23.13;;
10450;SDS011;5273;51.290;6.918;2023-11-21T13:16:41;49.55;;;20.70;;
10450;SDS011;5273;51.290;6.918;2023-11-21T13:19:11;60.75;;;22.67;;
10450;SDS011;5273;51.290;6.918;2023-11-21T13:21:41;62.78;;;23.63;;
10450;SDS011;5273;51.290;6.918;2023-11-21T13:24:08;53.95;;;22.85;;
10450;SDS011;5273;51.290;6.918;2023-11-21T13:26:36;56.25;;;22.80;;
10450;SDS011;5273;51.290;6.918;2023-11-21T13:29:05;44.33;;;21.90;;
10450;SDS011;5273;51.290;6.918;2023-11-21T13:31:34;54.65;;;20.73;;
10450;SDS011;5273;51.290;6.918;2023-11-21T13:34:03;66.35;;;22.80;;
10450;SDS011;5273;51.290;6.918;2023-11-21T13:36:36;53.33;;;22.48;;
10450;SDS011;5273;51.290;6.918;2023-11-21T13:39:03;53.15;;;23.20;;
10450;SDS011;5273;51.290;6.918;2023-11-21T13:41:32;63.70;;;25.55;;
10450;SDS011;5273;51.290;6.918;2023-11-21T13:44:02;62.90;;;24.73;;
10450;SDS011;5273;51.290;6.918;2023-11-21T13:46:42;68.20;;;26.93;;
10450;SDS011;5273;51.290;6.918;2023-11-21T13:49:10;69.80;;;26.80;;
10450;SDS011;5273;51.290;6.918;2023-11-21T13:51:38;59.10;;;23.90;;
10450;SDS011;5273;51.290;6.918;2023-11-21T13:54:09;48.13;;;19.58;;
10450;SDS011;5273;51.290;6.918;2023-11-21T13:56:40;45.37;;;18.40;;
10450;SDS011;5273;51.290;6.918;2023-11-21T13:59:11;39.87;;;19.17;;
10450;SDS011;5273;51.290;6.918;2023-11-21T14:01:45;41.30;;;17.90;;
10450;SDS011;5273;51.290;6.918;2023-11-21T14:04:24;40.40;;;18.10;;
10450;SDS011;5273;51.290;6.918;2023-11-21T14:07:11;38.17;;;18.13;;
10450;SDS011;5273;51.290;6.918;2023-11-21T14:09:50;29.87;;;16.60;;
10450;SDS011;5273;51.290;6.918;2023-11-21T14:12:18;34.87;;;17.60;;
10450;SDS011;5273;51.290;6.918;2023-11-21T14:14:46;38.60;;;18.98;;
10450;SDS011;5273;51.290;6.918;2023-11-21T14:17:14;37.35;;;18.27;;
10450;SDS011;5273;51.290;6.918;2023-11-21T14:19:43;33.17;;;17.83;;
10450;SDS011;5273;51.290;6.918;2023-11-21T14:22:14;33.42;;;17.48;;
10450;SDS011;5273;51.290;6.918;2023-11-21T14:24:42;35.10;;;17.58;;
10450;SDS011;5273;51.290;6.918;2023-11-21T14:27:13;33.33;;;17.45;;
10450;SDS011;5273;51.290;6.918;2023-11-21T14:29:42;29.70;;;16.50;;
10450;SDS011;5273;51.290;6.918;2023-11-21T14:32:12;28.33;;;16.13;;
10450;SDS011;5273;51.290;6.918;2023-11-21T14:34:39;25.87;;;15.43;;
10450;SDS011;5273;51.290;6.918;2023-11-21T14:37:08;32.13;;;16.63;;
10450;SDS011;5273;51.290;6.918;2023-11-21T14:39:39;28.77;;;16.10;;
10450;SDS011;5273;51.290;6.918;2023-11-21T14:42:09;26.70;;;14.10;;
10450;SDS011;5273;51.290;6.918;2023-11-21T14:44:36;24.38;;;13.88;;
10450;SDS011;5273;51.290;6.918;2023-11-21T14:47:07;27.13;;;14.93;;
10450;SDS011;5273;51.290;6.918;2023-11-21T14:49:41;24.87;;;14.63;;
10450;SDS011;5273;51.290;6.918;2023-11-21T14:52:17;24.60;;;14.02;;
10450;SDS011;5273;51.290;6.918;2023-11-21T14:54:57;26.77;;;14.27;;
10450;SDS011;5273;51.290;6.918;2023-11-21T14:57:45;26.17;;;15.30;;
10450;SDS011;5273;51.290;6.918;2023-11-21T15:00:15;26.37;;;14.23;;